sensor_id;sensor_type;location;lat;lon;timestamp;temperature;humidity
51733;DHT22;39139;53.144;6.244;2022-08-19T00:01:43;15.20;99.90
51733;DHT22;39139;53.144;6.244;2022-08-19T00:04:12;15.20;99.90
51733;DHT22;39139;53.144;6.244;2022-08-19T00:06:40;14.90;99.90
51733;DHT22;39139;53.144;6.244;2022-08-19T00:09:09;14.90;99.90
51733;DHT22;39139;53.144;6.244;2022-08-19T00:11:35;14.90;99.90
51733;DHT22;39139;53.144;6.244;2022-08-19T00:14:03;14.90;99.90
51733;DHT22;39139;53.144;6.244;2022-08-19T00:16:29;14.90;99.90
51733;DHT22;39139;53.144;6.244;2022-08-19T00:18:55;14.70;99.90
51733;DHT22;39139;53.144;6.244;2022-08-19T00:21:25;14.80;99.90
51733;DHT22;39139;53.144;6.244;2022-08-19T00:23:53;14.70;99.90
51733;DHT22;39139;53.144;6.244;2022-08-19T00:26:19;14.80;99.90
51733;DHT22;39139;53.144;6.244;2022-08-19T00:28:45;14.60;99.90
51733;DHT22;39139;53.144;6.244;2022-08-19T00:31:12;14.70;99.90
51733;DHT22;39139;53.144;6.244;2022-08-19T00:33:38;14.50;99.90
51733;DHT22;39139;53.144;6.244;2022-08-19T00:36:06;14.60;99.90
51733;DHT22;39139;53.144;6.244;2022-08-19T00:38:33;14.50;99.90
51733;DHT22;39139;53.144;6.244;2022-08-19T00:40:59;14.50;99.90
51733;DHT22;39139;53.144;6.244;2022-08-19T00:43:27;14.60;99.90
51733;DHT22;39139;53.144;6.244;2022-08-19T00:45:53;14.60;99.90
51733;DHT22;39139;53.144;6.244;2022-08-19T00:48:19;14.50;99.90
51733;DHT22;39139;53.144;6.244;2022-08-19T00:50:48;14.50;99.90
51733;DHT22;39139;53.144;6.244;2022-08-19T00:53:16;14.60;99.90
51733;DHT22;39139;53.144;6.244;2022-08-19T00:55:49;14.40;99.90
51733;DHT22;39139;53.144;6.244;2022-08-19T00:58:18;14.30;99.90
51733;DHT22;39139;53.144;6.244;2022-08-19T01:00:44;14.50;99.90
51733;DHT22;39139;53.144;6.244;2022-08-19T01:03:13;14.30;99.90
51733;DHT22;39139;53.144;6.244;2022-08-19T01:05:42;14.40;99.90
51733;DHT22;39139;53.144;6.244;2022-08-19T01:08:08;14.40;99.90
51733;DHT22;39139;53.144;6.244;2022-08-19T01:10:39;14.40;99.90
51733;DHT22;39139;53.144;6.244;2022-08-19T01:13:06;14.50;99.90
51733;DHT22;39139;53.144;6.244;2022-08-19T01:15:40;14.20;99.90
51733;DHT22;39139;53.144;6.244;2022-08-19T01:18:11;14.30;99.90
51733;DHT22;39139;53.144;6.244;2022-08-19T01:20:37;14.20;99.90
51733;DHT22;39139;53.144;6.244;2022-08-19T01:23:04;14.10;99.90
51733;DHT22;39139;53.144;6.244;2022-08-19T01:25:34;14.20;99.90
51733;DHT22;39139;53.144;6.244;2022-08-19T01:28:02;14.00;99.90
51733;DHT22;39139;53.144;6.244;2022-08-19T01:30:31;14.10;99.90
51733;DHT22;39139;53.144;6.244;2022-08-19T01:32:58;14.10;99.90
51733;DHT22;39139;53.144;6.244;2022-08-19T01:35:30;14.00;99.90
51733;DHT22;39139;53.144;6.244;2022-08-19T01:38:02;13.90;99.90
51733;DHT22;39139;53.144;6.244;2022-08-19T01:40:32;13.90;99.90
51733;DHT22;39139;53.144;6.244;2022-08-19T01:43:00;13.90;99.90
51733;DHT22;39139;53.144;6.244;2022-08-19T01:45:27;14.10;99.90
51733;DHT22;39139;53.144;6.244;2022-08-19T01:47:55;13.70;99.90
51733;DHT22;39139;53.144;6.244;2022-08-19T01:50:21;13.90;99.90
51733;DHT22;39139;53.144;6.244;2022-08-19T01:52:47;13.70;99.90
51733;DHT22;39139;53.144;6.244;2022-08-19T01:55:19;13.60;99.90
51733;DHT22;39139;53.144;6.244;2022-08-19T01:57:52;13.90;99.90
51733;DHT22;39139;53.144;6.244;2022-08-19T02:00:20;13.90;99.90
51733;DHT22;39139;53.144;6.244;2022-08-19T02:02:46;13.80;99.90
51733;DHT22;39139;53.144;6.244;2022-08-19T02:05:13;13.80;99.90
51733;DHT22;39139;53.144;6.244;2022-08-19T02:07:40;13.80;99.90
51733;DHT22;39139;53.144;6.244;2022-08-19T02:10:09;13.60;99.90
51733;DHT22;39139;53.144;6.244;2022-08-19T02:12:35;13.60;99.90
51733;DHT22;39139;53.144;6.244;2022-08-19T02:15:02;13.60;99.90
51733;DHT22;39139;53.144;6.244;2022-08-19T02:17:28;13.50;99.90
51733;DHT22;39139;53.144;6.244;2022-08-19T02:19:58;13.70;99.90
51733;DHT22;39139;53.144;6.244;2022-08-19T02:22:24;13.50;99.90
51733;DHT22;39139;53.144;6.244;2022-08-19T02:24:53;13.60;99.90
51733;DHT22;39139;53.144;6.244;2022-08-19T02:27:19;13.60;99.90
51733;DHT22;39139;53.144;6.244;2022-08-19T02:29:47;13.70;99.90
51733;DHT22;39139;53.144;6.244;2022-08-19T02:32:13;13.50;99.90
51733;DHT22;39139;53.144;6.244;2022-08-19T02:34:39;13.40;99.90
51733;DHT22;39139;53.144;6.244;2022-08-19T02:37:04;13.50;99.90
51733;DHT22;39139;53.144;6.244;2022-08-19T02:39:30;13.60;99.90
51733;DHT22;39139;53.144;6.244;2022-08-19T02:41:56;13.50;99.90
51733;DHT22;39139;53.144;6.244;2022-08-19T02:44:21;13.30;99.90
51733;DHT22;39139;53.144;6.244;2022-08-19T02:46:47;13.40;99.90
51733;DHT22;39139;53.144;6.244;2022-08-19T02:49:15;13.60;99.90
51733;DHT22;39139;53.144;6.244;2022-08-19T02:51:43;13.40;99.90
51733;DHT22;39139;53.144;6.244;2022-08-19T02:54:10;13.40;99.90
51733;DHT22;39139;53.144;6.244;2022-08-19T02:56:38;13.30;99.90
51733;DHT22;39139;53.144;6.244;2022-08-19T02:59:05;13.30;99.90
51733;DHT22;39139;53.144;6.244;2022-08-19T03:01:34;13.50;99.90
51733;DHT22;39139;53.144;6.244;2022-08-19T03:04:02;13.50;99.90
51733;DHT22;39139;53.144;6.244;2022-08-19T03:06:29;13.40;99.90
51733;DHT22;39139;53.144;6.244;2022-08-19T03:08:55;13.40;99.90
51733;DHT22;39139;53.144;6.244;2022-08-19T03:11:23;13.40;99.90
51733;DHT22;39139;53.144;6.244;2022-08-19T03:13:49;13.60;99.90
51733;DHT22;39139;53.144;6.244;2022-08-19T03:16:23;13.30;99.90
51733;DHT22;39139;53.144;6.244;2022-08-19T03:18:49;13.20;99.90
51733;DHT22;39139;53.144;6.244;2022-08-19T03:21:27;13.40;99.90
51733;DHT22;39139;53.144;6.244;2022-08-19T03:23:54;13.10;99.90
51733;DHT22;39139;53.144;6.244;2022-08-19T03:26:20;13.40;99.90
51733;DHT22;39139;53.144;6.244;2022-08-19T03:28:46;13.30;99.90
51733;DHT22;39139;53.144;6.244;2022-08-19T03:31:17;13.30;99.90
51733;DHT22;39139;53.144;6.244;2022-08-19T03:33:43;13.40;99.90
51733;DHT22;39139;53.144;6.244;2022-08-19T03:36:12;13.10;99.90
51733;DHT22;39139;53.144;6.244;2022-08-19T03:38:45;13.20;99.90
51733;DHT22;39139;53.144;6.244;2022-08-19T03:41:14;13.20;99.90
51733;DHT22;39139;53.144;6.244;2022-08-19T03:43:41;13.00;99.90
51733;DHT22;39139;53.144;6.244;2022-08-19T03:46:12;13.00;99.90
51733;DHT22;39139;53.144;6.244;2022-08-19T03:48:39;13.10;99.90
51733;DHT22;39139;53.144;6.244;2022-08-19T03:51:07;13.20;99.90
51733;DHT22;39139;53.144;6.244;2022-08-19T03:53:34;13.00;99.90
51733;DHT22;39139;53.144;6.244;2022-08-19T03:56:00;13.00;99.90
51733;DHT22;39139;53.144;6.244;2022-08-19T03:58:28;13.20;99.90
51733;DHT22;39139;53.144;6.244;2022-08-19T04:00:56;13.10;99.90
51733;DHT22;39139;53.144;6.244;2022-08-19T04:03:22;13.00;99.90
51733;DHT22;39139;53.144;6.244;2022-08-19T04:05:48;13.10;99.90
51733;DHT22;39139;53.144;6.244;2022-08-19T04:08:14;13.10;99.90
51733;DHT22;39139;53.144;6.244;2022-08-19T04:10:46;13.00;99.90
51733;DHT22;39139;53.144;6.244;2022-08-19T04:13:13;12.90;99.90
51733;DHT22;39139;53.144;6.244;2022-08-19T04:15:40;13.00;99.90
51733;DHT22;39139;53.144;6.244;2022-08-19T04:18:08;13.00;99.90
51733;DHT22;39139;53.144;6.244;2022-08-19T04:20:47;13.00;99.90
51733;DHT22;39139;53.144;6.244;2022-08-19T04:23:14;13.00;99.90
51733;DHT22;39139;53.144;6.244;2022-08-19T04:25:42;13.00;99.90
51733;DHT22;39139;53.144;6.244;2022-08-19T04:28:09;13.00;99.90
51733;DHT22;39139;53.144;6.244;2022-08-19T04:30:44;12.90;99.90
51733;DHT22;39139;53.144;6.244;2022-08-19T04:33:12;13.00;99.90
51733;DHT22;39139;53.144;6.244;2022-08-19T04:35:44;13.00;99.90
51733;DHT22;39139;53.144;6.244;2022-08-19T04:38:11;13.00;99.90
51733;DHT22;39139;53.144;6.244;2022-08-19T04:40:47;13.20;99.90
51733;DHT22;39139;53.144;6.244;2022-08-19T04:43:33;13.10;99.90
51733;DHT22;39139;53.144;6.244;2022-08-19T04:46:07;13.10;99.90
51733;DHT22;39139;53.144;6.244;2022-08-19T04:48:34;13.00;99.90
51733;DHT22;39139;53.144;6.244;2022-08-19T04:51:01;13.20;99.90
51733;DHT22;39139;53.144;6.244;2022-08-19T04:53:33;13.00;99.90
51733;DHT22;39139;53.144;6.244;2022-08-19T04:56:03;13.20;99.90
51733;DHT22;39139;53.144;6.244;2022-08-19T04:58:29;13.10;99.90
51733;DHT22;39139;53.144;6.244;2022-08-19T05:00:55;13.00;99.90
51733;DHT22;39139;53.144;6.244;2022-08-19T05:03:21;13.00;99.90
51733;DHT22;39139;53.144;6.244;2022-08-19T05:05:48;13.10;99.90
51733;DHT22;39139;53.144;6.244;2022-08-19T05:08:16;13.30;99.90
51733;DHT22;39139;53.144;6.244;2022-08-19T05:10:46;13.10;99.90
51733;DHT22;39139;53.144;6.244;2022-08-19T05:13:13;13.30;99.90
51733;DHT22;39139;53.144;6.244;2022-08-19T05:15:40;13.30;99.90
51733;DHT22;39139;53.144;6.244;2022-08-19T05:18:06;13.40;99.90
51733;DHT22;39139;53.144;6.244;2022-08-19T05:20:50;13.60;99.90
51733;DHT22;39139;53.144;6.244;2022-08-19T05:23:35;13.60;99.90
51733;DHT22;39139;53.144;6.244;2022-08-19T05:26:00;13.70;99.90
51733;DHT22;39139;53.144;6.244;2022-08-19T05:28:26;13.70;99.90
51733;DHT22;39139;53.144;6.244;2022-08-19T05:30:53;13.80;99.90
51733;DHT22;39139;53.144;6.244;2022-08-19T05:33:21;13.80;99.90
51733;DHT22;39139;53.144;6.244;2022-08-19T05:35:47;13.80;99.90
51733;DHT22;39139;53.144;6.244;2022-08-19T05:38:16;14.00;99.90
51733;DHT22;39139;53.144;6.244;2022-08-19T05:40:42;13.90;99.90
51733;DHT22;39139;53.144;6.244;2022-08-19T05:43:15;13.80;99.90
51733;DHT22;39139;53.144;6.244;2022-08-19T05:45:41;14.10;99.90
51733;DHT22;39139;53.144;6.244;2022-08-19T05:48:09;14.10;99.90
51733;DHT22;39139;53.144;6.244;2022-08-19T05:50:37;14.20;99.90
51733;DHT22;39139;53.144;6.244;2022-08-19T05:53:03;14.20;99.90
51733;DHT22;39139;53.144;6.244;2022-08-19T05:55:29;14.40;99.90
51733;DHT22;39139;53.144;6.244;2022-08-19T05:57:54;14.40;99.90
51733;DHT22;39139;53.144;6.244;2022-08-19T06:00:20;14.60;99.90
51733;DHT22;39139;53.144;6.244;2022-08-19T06:02:46;14.60;99.90
51733;DHT22;39139;53.144;6.244;2022-08-19T06:05:11;14.50;99.90
51733;DHT22;39139;53.144;6.244;2022-08-19T06:07:38;14.60;99.90
51733;DHT22;39139;53.144;6.244;2022-08-19T06:10:06;14.60;99.90
51733;DHT22;39139;53.144;6.244;2022-08-19T06:12:34;14.80;99.90
51733;DHT22;39139;53.144;6.244;2022-08-19T06:15:02;14.90;99.90
51733;DHT22;39139;53.144;6.244;2022-08-19T06:17:29;14.90;99.90
51733;DHT22;39139;53.144;6.244;2022-08-19T06:19:55;15.10;99.90
51733;DHT22;39139;53.144;6.244;2022-08-19T06:22:21;15.20;99.90
51733;DHT22;39139;53.144;6.244;2022-08-19T06:24:47;15.50;99.90
51733;DHT22;39139;53.144;6.244;2022-08-19T06:27:13;15.40;99.90
51733;DHT22;39139;53.144;6.244;2022-08-19T06:29:38;15.60;99.90
51733;DHT22;39139;53.144;6.244;2022-08-19T06:32:04;15.60;99.90
51733;DHT22;39139;53.144;6.244;2022-08-19T06:34:32;15.90;99.90
51733;DHT22;39139;53.144;6.244;2022-08-19T06:37:00;15.90;99.90
51733;DHT22;39139;53.144;6.244;2022-08-19T06:39:31;16.10;99.90
51733;DHT22;39139;53.144;6.244;2022-08-19T06:41:59;16.20;99.90
51733;DHT22;39139;53.144;6.244;2022-08-19T06:44:27;16.40;99.90
51733;DHT22;39139;53.144;6.244;2022-08-19T06:46:54;16.30;99.90
51733;DHT22;39139;53.144;6.244;2022-08-19T06:49:21;16.40;99.90
51733;DHT22;39139;53.144;6.244;2022-08-19T06:51:48;16.50;99.90
51733;DHT22;39139;53.144;6.244;2022-08-19T06:54:15;16.60;99.90
51733;DHT22;39139;53.144;6.244;2022-08-19T06:56:42;16.90;99.90
51733;DHT22;39139;53.144;6.244;2022-08-19T06:59:14;17.00;99.90
51733;DHT22;39139;53.144;6.244;2022-08-19T07:01:48;17.10;99.90
51733;DHT22;39139;53.144;6.244;2022-08-19T07:04:16;17.00;99.90
51733;DHT22;39139;53.144;6.244;2022-08-19T07:06:43;17.10;99.90
51733;DHT22;39139;53.144;6.244;2022-08-19T07:09:12;17.30;99.90
51733;DHT22;39139;53.144;6.244;2022-08-19T07:11:38;17.50;99.90
51733;DHT22;39139;53.144;6.244;2022-08-19T07:14:04;17.20;99.90
51733;DHT22;39139;53.144;6.244;2022-08-19T07:16:31;17.50;99.90
51733;DHT22;39139;53.144;6.244;2022-08-19T07:18:57;17.30;99.90
51733;DHT22;39139;53.144;6.244;2022-08-19T07:21:26;17.60;99.90
51733;DHT22;39139;53.144;6.244;2022-08-19T07:23:54;17.60;99.90
51733;DHT22;39139;53.144;6.244;2022-08-19T07:26:30;17.60;99.90
51733;DHT22;39139;53.144;6.244;2022-08-19T07:28:57;18.00;99.90
51733;DHT22;39139;53.144;6.244;2022-08-19T07:31:25;18.10;99.90
51733;DHT22;39139;53.144;6.244;2022-08-19T07:33:53;18.20;99.90
51733;DHT22;39139;53.144;6.244;2022-08-19T07:36:23;18.20;99.90
51733;DHT22;39139;53.144;6.244;2022-08-19T07:38:50;18.10;99.90
51733;DHT22;39139;53.144;6.244;2022-08-19T07:41:20;18.30;99.90
51733;DHT22;39139;53.144;6.244;2022-08-19T07:43:47;18.40;99.90
51733;DHT22;39139;53.144;6.244;2022-08-19T07:46:15;18.30;99.90
51733;DHT22;39139;53.144;6.244;2022-08-19T07:48:43;18.70;99.90
51733;DHT22;39139;53.144;6.244;2022-08-19T07:51:10;18.50;99.90
51733;DHT22;39139;53.144;6.244;2022-08-19T07:53:37;18.90;99.90
51733;DHT22;39139;53.144;6.244;2022-08-19T07:56:04;19.00;99.90
51733;DHT22;39139;53.144;6.244;2022-08-19T07:58:33;19.00;99.90
51733;DHT22;39139;53.144;6.244;2022-08-19T08:00:59;19.20;99.90
51733;DHT22;39139;53.144;6.244;2022-08-19T08:03:26;19.30;99.90
51733;DHT22;39139;53.144;6.244;2022-08-19T08:06:11;19.20;99.90
51733;DHT22;39139;53.144;6.244;2022-08-19T08:08:56;19.40;99.90
51733;DHT22;39139;53.144;6.244;2022-08-19T08:11:43;19.50;99.90
51733;DHT22;39139;53.144;6.244;2022-08-19T08:14:23;19.40;99.90
51733;DHT22;39139;53.144;6.244;2022-08-19T08:16:50;19.70;99.90
51733;DHT22;39139;53.144;6.244;2022-08-19T08:19:18;19.50;99.90
51733;DHT22;39139;53.144;6.244;2022-08-19T08:21:44;19.80;99.90
51733;DHT22;39139;53.144;6.244;2022-08-19T08:24:11;19.90;99.90
51733;DHT22;39139;53.144;6.244;2022-08-19T08:26:37;19.80;99.90
51733;DHT22;39139;53.144;6.244;2022-08-19T08:29:03;20.10;99.90
51733;DHT22;39139;53.144;6.244;2022-08-19T08:31:29;20.10;99.90
51733;DHT22;39139;53.144;6.244;2022-08-19T08:33:54;20.30;99.90
51733;DHT22;39139;53.144;6.244;2022-08-19T08:36:21;20.40;99.90
51733;DHT22;39139;53.144;6.244;2022-08-19T08:38:46;20.70;99.90
51733;DHT22;39139;53.144;6.244;2022-08-19T08:43:49;21.50;99.90
51733;DHT22;39139;53.144;6.244;2022-08-19T08:46:36;21.60;99.90
51733;DHT22;39139;53.144;6.244;2022-08-19T08:51:58;22.60;99.90
51733;DHT22;39139;53.144;6.244;2022-08-19T08:54:30;22.80;99.90
51733;DHT22;39139;53.144;6.244;2022-08-19T08:56:57;23.20;99.90
51733;DHT22;39139;53.144;6.244;2022-08-19T08:59:33;23.40;99.90
51733;DHT22;39139;53.144;6.244;2022-08-19T09:02:00;23.70;99.90
51733;DHT22;39139;53.144;6.244;2022-08-19T09:04:26;24.00;99.90
51733;DHT22;39139;53.144;6.244;2022-08-19T09:09:35;24.50;99.90
51733;DHT22;39139;53.144;6.244;2022-08-19T09:12:16;24.80;99.90
51733;DHT22;39139;53.144;6.244;2022-08-19T09:15:09;24.80;99.90
51733;DHT22;39139;53.144;6.244;2022-08-19T09:17:36;25.10;99.90
51733;DHT22;39139;53.144;6.244;2022-08-19T09:22:36;25.50;99.90
51733;DHT22;39139;53.144;6.244;2022-08-19T09:25:04;25.70;99.90
51733;DHT22;39139;53.144;6.244;2022-08-19T09:27:30;25.80;99.90
51733;DHT22;39139;53.144;6.244;2022-08-19T09:29:57;25.90;99.90
51733;DHT22;39139;53.144;6.244;2022-08-19T09:32:23;26.00;99.90
51733;DHT22;39139;53.144;6.244;2022-08-19T09:34:49;26.10;99.90
51733;DHT22;39139;53.144;6.244;2022-08-19T09:37:15;26.20;99.90
51733;DHT22;39139;53.144;6.244;2022-08-19T09:39:41;26.30;99.90
51733;DHT22;39139;53.144;6.244;2022-08-19T09:42:08;26.40;99.90
51733;DHT22;39139;53.144;6.244;2022-08-19T09:44:40;26.40;99.90
51733;DHT22;39139;53.144;6.244;2022-08-19T09:47:06;26.40;99.90
51733;DHT22;39139;53.144;6.244;2022-08-19T09:49:32;26.40;99.90
51733;DHT22;39139;53.144;6.244;2022-08-19T09:51:59;26.50;99.90
51733;DHT22;39139;53.144;6.244;2022-08-19T09:54:25;26.50;99.90
51733;DHT22;39139;53.144;6.244;2022-08-19T09:56:52;26.50;99.90
51733;DHT22;39139;53.144;6.244;2022-08-19T09:59:18;26.50;99.90
51733;DHT22;39139;53.144;6.244;2022-08-19T10:01:43;26.50;99.90
51733;DHT22;39139;53.144;6.244;2022-08-19T10:04:09;26.50;99.90
51733;DHT22;39139;53.144;6.244;2022-08-19T10:06:37;26.30;99.90
51733;DHT22;39139;53.144;6.244;2022-08-19T10:09:04;26.40;99.90
51733;DHT22;39139;53.144;6.244;2022-08-19T10:11:32;26.30;99.90
51733;DHT22;39139;53.144;6.244;2022-08-19T10:13:58;26.20;99.90
51733;DHT22;39139;53.144;6.244;2022-08-19T10:16:25;26.10;99.90
51733;DHT22;39139;53.144;6.244;2022-08-19T10:18:51;26.20;99.90
51733;DHT22;39139;53.144;6.244;2022-08-19T10:21:20;26.30;99.90
51733;DHT22;39139;53.144;6.244;2022-08-19T10:23:48;26.30;99.90
51733;DHT22;39139;53.144;6.244;2022-08-19T10:26:16;25.90;99.90
51733;DHT22;39139;53.144;6.244;2022-08-19T10:28:42;25.90;99.90
51733;DHT22;39139;53.144;6.244;2022-08-19T10:31:14;26.00;99.90
51733;DHT22;39139;53.144;6.244;2022-08-19T10:33:40;26.10;99.90
51733;DHT22;39139;53.144;6.244;2022-08-19T10:36:09;26.20;99.90
51733;DHT22;39139;53.144;6.244;2022-08-19T10:38:36;26.10;99.90
51733;DHT22;39139;53.144;6.244;2022-08-19T10:41:13;25.80;99.90
51733;DHT22;39139;53.144;6.244;2022-08-19T10:43:40;25.70;99.90
51733;DHT22;39139;53.144;6.244;2022-08-19T10:46:11;25.60;99.90
51733;DHT22;39139;53.144;6.244;2022-08-19T10:48:37;25.80;99.90
51733;DHT22;39139;53.144;6.244;2022-08-19T10:51:03;25.90;99.90
51733;DHT22;39139;53.144;6.244;2022-08-19T10:53:48;26.00;99.90
51733;DHT22;39139;53.144;6.244;2022-08-19T10:56:14;26.20;99.90
51733;DHT22;39139;53.144;6.244;2022-08-19T10:58:59;26.40;99.90
51733;DHT22;39139;53.144;6.244;2022-08-19T11:01:26;26.50;99.90
51733;DHT22;39139;53.144;6.244;2022-08-19T11:03:52;26.40;99.90
51733;DHT22;39139;53.144;6.244;2022-08-19T11:06:18;26.30;99.90
51733;DHT22;39139;53.144;6.244;2022-08-19T11:08:44;26.10;99.90
51733;DHT22;39139;53.144;6.244;2022-08-19T11:11:11;26.10;99.90
51733;DHT22;39139;53.144;6.244;2022-08-19T11:13:40;26.30;99.90
51733;DHT22;39139;53.144;6.244;2022-08-19T11:16:15;26.20;99.90
51733;DHT22;39139;53.144;6.244;2022-08-19T11:18:43;26.00;99.90
51733;DHT22;39139;53.144;6.244;2022-08-19T11:21:15;25.80;99.90
51733;DHT22;39139;53.144;6.244;2022-08-19T11:23:45;25.90;99.90
51733;DHT22;39139;53.144;6.244;2022-08-19T11:26:11;25.90;99.90
51733;DHT22;39139;53.144;6.244;2022-08-19T11:28:37;26.00;99.90
51733;DHT22;39139;53.144;6.244;2022-08-19T11:31:04;25.90;99.90
51733;DHT22;39139;53.144;6.244;2022-08-19T11:33:32;25.80;99.90
51733;DHT22;39139;53.144;6.244;2022-08-19T11:35:59;25.80;99.90
51733;DHT22;39139;53.144;6.244;2022-08-19T11:38:26;25.80;99.90
51733;DHT22;39139;53.144;6.244;2022-08-19T11:40:56;25.70;99.90
51733;DHT22;39139;53.144;6.244;2022-08-19T11:43:22;25.80;99.90
51733;DHT22;39139;53.144;6.244;2022-08-19T11:45:48;25.90;99.90
51733;DHT22;39139;53.144;6.244;2022-08-19T11:48:17;26.00;99.90
51733;DHT22;39139;53.144;6.244;2022-08-19T11:50:48;26.00;99.90
51733;DHT22;39139;53.144;6.244;2022-08-19T11:53:13;26.00;99.90
51733;DHT22;39139;53.144;6.244;2022-08-19T11:55:39;25.80;99.90
51733;DHT22;39139;53.144;6.244;2022-08-19T11:58:06;25.70;99.90
51733;DHT22;39139;53.144;6.244;2022-08-19T12:00:34;25.70;99.90
51733;DHT22;39139;53.144;6.244;2022-08-19T12:03:01;25.50;99.90
51733;DHT22;39139;53.144;6.244;2022-08-19T12:05:26;25.50;99.90
51733;DHT22;39139;53.144;6.244;2022-08-19T12:07:52;25.30;99.90
51733;DHT22;39139;53.144;6.244;2022-08-19T12:10:19;25.20;99.90
51733;DHT22;39139;53.144;6.244;2022-08-19T12:12:45;25.10;99.90
51733;DHT22;39139;53.144;6.244;2022-08-19T12:15:12;25.00;99.90
51733;DHT22;39139;53.144;6.244;2022-08-19T12:17:42;24.80;99.90
51733;DHT22;39139;53.144;6.244;2022-08-19T12:20:10;24.60;99.90
51733;DHT22;39139;53.144;6.244;2022-08-19T12:22:37;24.40;99.90
51733;DHT22;39139;53.144;6.244;2022-08-19T12:25:05;24.30;99.90
51733;DHT22;39139;53.144;6.244;2022-08-19T12:27:31;24.30;99.90
51733;DHT22;39139;53.144;6.244;2022-08-19T12:29:57;24.20;99.90
51733;DHT22;39139;53.144;6.244;2022-08-19T12:32:23;24.20;99.90
51733;DHT22;39139;53.144;6.244;2022-08-19T12:34:50;24.20;99.90
51733;DHT22;39139;53.144;6.244;2022-08-19T12:37:15;24.10;99.90
51733;DHT22;39139;53.144;6.244;2022-08-19T12:39:43;24.10;99.90
51733;DHT22;39139;53.144;6.244;2022-08-19T12:42:10;24.20;99.90
51733;DHT22;39139;53.144;6.244;2022-08-19T12:44:38;24.20;99.90
51733;DHT22;39139;53.144;6.244;2022-08-19T12:47:05;24.30;99.90
51733;DHT22;39139;53.144;6.244;2022-08-19T12:49:33;24.20;99.90
51733;DHT22;39139;53.144;6.244;2022-08-19T12:52:03;24.30;99.90
51733;DHT22;39139;53.144;6.244;2022-08-19T12:54:29;24.30;99.90
51733;DHT22;39139;53.144;6.244;2022-08-19T12:56:59;24.30;99.90
51733;DHT22;39139;53.144;6.244;2022-08-19T12:59:25;24.20;99.90
51733;DHT22;39139;53.144;6.244;2022-08-19T13:01:50;24.00;99.90
51733;DHT22;39139;53.144;6.244;2022-08-19T13:04:16;23.90;99.90
51733;DHT22;39139;53.144;6.244;2022-08-19T13:06:42;23.80;99.90
51733;DHT22;39139;53.144;6.244;2022-08-19T13:09:08;23.80;99.90
51733;DHT22;39139;53.144;6.244;2022-08-19T13:11:34;23.80;99.90
51733;DHT22;39139;53.144;6.244;2022-08-19T13:14:02;23.70;99.90
51733;DHT22;39139;53.144;6.244;2022-08-19T13:16:28;23.70;99.90
51733;DHT22;39139;53.144;6.244;2022-08-19T13:18:55;23.70;99.90
51733;DHT22;39139;53.144;6.244;2022-08-19T13:21:24;23.70;99.90
51733;DHT22;39139;53.144;6.244;2022-08-19T13:23:50;23.70;99.90
51733;DHT22;39139;53.144;6.244;2022-08-19T13:26:17;23.70;99.90
51733;DHT22;39139;53.144;6.244;2022-08-19T13:28:44;23.80;99.90
51733;DHT22;39139;53.144;6.244;2022-08-19T13:31:33;23.80;99.90
51733;DHT22;39139;53.144;6.244;2022-08-19T13:34:25;23.90;99.90
51733;DHT22;39139;53.144;6.244;2022-08-19T13:36:52;24.00;99.90
51733;DHT22;39139;53.144;6.244;2022-08-19T13:39:19;24.00;99.90
51733;DHT22;39139;53.144;6.244;2022-08-19T13:41:46;24.00;99.90
51733;DHT22;39139;53.144;6.244;2022-08-19T13:44:14;24.00;99.90
51733;DHT22;39139;53.144;6.244;2022-08-19T13:46:41;24.10;99.90
51733;DHT22;39139;53.144;6.244;2022-08-19T13:49:13;24.10;99.90
51733;DHT22;39139;53.144;6.244;2022-08-19T13:51:40;24.10;99.90
51733;DHT22;39139;53.144;6.244;2022-08-19T13:54:07;24.10;99.90
51733;DHT22;39139;53.144;6.244;2022-08-19T13:56:34;24.00;99.90
51733;DHT22;39139;53.144;6.244;2022-08-19T13:59:00;24.00;99.90
51733;DHT22;39139;53.144;6.244;2022-08-19T14:01:26;24.00;99.90
51733;DHT22;39139;53.144;6.244;2022-08-19T14:03:52;24.00;99.90
51733;DHT22;39139;53.144;6.244;2022-08-19T14:06:18;24.00;99.90
51733;DHT22;39139;53.144;6.244;2022-08-19T14:08:45;23.90;99.90
51733;DHT22;39139;53.144;6.244;2022-08-19T14:11:11;23.90;99.90
51733;DHT22;39139;53.144;6.244;2022-08-19T14:13:36;23.80;99.90
51733;DHT22;39139;53.144;6.244;2022-08-19T14:16:08;23.80;99.90
51733;DHT22;39139;53.144;6.244;2022-08-19T14:18:33;23.70;99.90
51733;DHT22;39139;53.144;6.244;2022-08-19T14:20:59;23.70;99.90
51733;DHT22;39139;53.144;6.244;2022-08-19T14:23:25;23.70;99.90
51733;DHT22;39139;53.144;6.244;2022-08-19T14:25:51;23.60;99.90
51733;DHT22;39139;53.144;6.244;2022-08-19T14:28:16;23.70;99.90
51733;DHT22;39139;53.144;6.244;2022-08-19T14:30:42;23.70;99.90
51733;DHT22;39139;53.144;6.244;2022-08-19T14:33:10;23.70;99.90
51733;DHT22;39139;53.144;6.244;2022-08-19T14:35:36;23.70;99.90
51733;DHT22;39139;53.144;6.244;2022-08-19T14:38:06;23.70;99.90
51733;DHT22;39139;53.144;6.244;2022-08-19T14:40:32;23.70;99.90
51733;DHT22;39139;53.144;6.244;2022-08-19T14:43:01;23.70;99.90
51733;DHT22;39139;53.144;6.244;2022-08-19T14:45:31;23.80;99.90
51733;DHT22;39139;53.144;6.244;2022-08-19T14:47:56;23.70;99.90
51733;DHT22;39139;53.144;6.244;2022-08-19T14:50:24;23.70;99.90
51733;DHT22;39139;53.144;6.244;2022-08-19T14:53:01;23.60;99.90
51733;DHT22;39139;53.144;6.244;2022-08-19T14:55:29;23.60;99.90
51733;DHT22;39139;53.144;6.244;2022-08-19T14:57:54;23.70;99.90
51733;DHT22;39139;53.144;6.244;2022-08-19T15:00:20;23.70;99.90
51733;DHT22;39139;53.144;6.244;2022-08-19T15:02:46;23.70;99.90
51733;DHT22;39139;53.144;6.244;2022-08-19T15:05:12;23.90;99.90
51733;DHT22;39139;53.144;6.244;2022-08-19T15:07:39;23.90;99.90
51733;DHT22;39139;53.144;6.244;2022-08-19T15:10:06;24.00;99.90
51733;DHT22;39139;53.144;6.244;2022-08-19T15:12:34;24.10;99.90
51733;DHT22;39139;53.144;6.244;2022-08-19T15:15:00;24.20;99.90
51733;DHT22;39139;53.144;6.244;2022-08-19T15:17:26;24.20;99.90
51733;DHT22;39139;53.144;6.244;2022-08-19T15:19:52;24.20;99.90
51733;DHT22;39139;53.144;6.244;2022-08-19T15:22:17;24.20;99.90
51733;DHT22;39139;53.144;6.244;2022-08-19T15:24:43;24.20;99.90
51733;DHT22;39139;53.144;6.244;2022-08-19T15:27:13;24.10;99.90
51733;DHT22;39139;53.144;6.244;2022-08-19T15:29:39;24.10;99.90
51733;DHT22;39139;53.144;6.244;2022-08-19T15:32:06;24.00;99.90
51733;DHT22;39139;53.144;6.244;2022-08-19T15:34:33;24.00;99.90
51733;DHT22;39139;53.144;6.244;2022-08-19T15:36:59;24.00;99.90
51733;DHT22;39139;53.144;6.244;2022-08-19T15:39:25;24.10;99.90
51733;DHT22;39139;53.144;6.244;2022-08-19T15:41:51;24.10;99.90
51733;DHT22;39139;53.144;6.244;2022-08-19T15:44:18;24.10;99.90
51733;DHT22;39139;53.144;6.244;2022-08-19T15:46:45;24.10;99.90